sensor_id;sensor_type;location;lat;lon;timestamp;temperature;humidity
51914;DHT22;37940;53.002;6.930;2023-03-01T00:01:59;-2.50;99.90
51914;DHT22;37940;53.002;6.930;2023-03-01T00:04:25;-1.50;99.90
51914;DHT22;37940;53.002;6.930;2023-03-01T00:06:52;-2.00;99.90
51914;DHT22;37940;53.002;6.930;2023-03-01T00:09:18;-2.60;99.90
51914;DHT22;37940;53.002;6.930;2023-03-01T00:11:44;-2.60;99.90
51914;DHT22;37940;53.002;6.930;2023-03-01T00:14:10;-2.60;99.90
51914;DHT22;37940;53.002;6.930;2023-03-01T00:16:41;-2.70;99.90
51914;DHT22;37940;53.002;6.930;2023-03-01T00:19:11;-2.70;99.90
51914;DHT22;37940;53.002;6.930;2023-03-01T00:21:37;-2.70;99.90
51914;DHT22;37940;53.002;6.930;2023-03-01T00:24:03;-2.70;99.90
51914;DHT22;37940;53.002;6.930;2023-03-01T00:26:30;-2.70;99.90
51914;DHT22;37940;53.002;6.930;2023-03-01T00:28:57;-2.70;99.90
51914;DHT22;37940;53.002;6.930;2023-03-01T00:31:25;-2.80;99.90
51914;DHT22;37940;53.002;6.930;2023-03-01T00:33:55;-2.70;99.90
51914;DHT22;37940;53.002;6.930;2023-03-01T00:36:26;-2.80;99.90
51914;DHT22;37940;53.002;6.930;2023-03-01T00:38:52;-2.90;99.90
51914;DHT22;37940;53.002;6.930;2023-03-01T00:41:19;-2.90;99.90
51914;DHT22;37940;53.002;6.930;2023-03-01T00:43:45;-2.90;99.90
51914;DHT22;37940;53.002;6.930;2023-03-01T00:46:17;-2.90;99.90
51914;DHT22;37940;53.002;6.930;2023-03-01T00:48:44;-3.00;99.90
51914;DHT22;37940;53.002;6.930;2023-03-01T00:51:16;-2.30;99.90
51914;DHT22;37940;53.002;6.930;2023-03-01T00:53:42;-2.50;99.90
51914;DHT22;37940;53.002;6.930;2023-03-01T00:56:09;-2.60;99.90
51914;DHT22;37940;53.002;6.930;2023-03-01T00:58:36;-2.60;99.90
51914;DHT22;37940;53.002;6.930;2023-03-01T01:01:14;-3.00;99.90
51914;DHT22;37940;53.002;6.930;2023-03-01T01:03:47;-3.00;99.90
51914;DHT22;37940;53.002;6.930;2023-03-01T01:06:19;-3.00;99.90
51914;DHT22;37940;53.002;6.930;2023-03-01T01:08:45;-2.80;99.90
51914;DHT22;37940;53.002;6.930;2023-03-01T01:11:12;-3.00;99.90
51914;DHT22;37940;53.002;6.930;2023-03-01T01:13:39;-2.80;99.90
51914;DHT22;37940;53.002;6.930;2023-03-01T01:16:06;-2.30;99.90
51914;DHT22;37940;53.002;6.930;2023-03-01T01:18:32;-3.10;99.90
51914;DHT22;37940;53.002;6.930;2023-03-01T01:20:57;-3.10;99.90
51914;DHT22;37940;53.002;6.930;2023-03-01T01:23:23;-3.10;99.90
51914;DHT22;37940;53.002;6.930;2023-03-01T01:25:49;-2.30;99.90
51914;DHT22;37940;53.002;6.930;2023-03-01T01:28:15;-2.70;99.90
51914;DHT22;37940;53.002;6.930;2023-03-01T01:30:40;-2.30;99.90
51914;DHT22;37940;53.002;6.930;2023-03-01T01:33:07;-2.20;99.90
51914;DHT22;37940;53.002;6.930;2023-03-01T01:35:33;-3.10;99.90
51914;DHT22;37940;53.002;6.930;2023-03-01T01:37:59;-3.20;99.90
51914;DHT22;37940;53.002;6.930;2023-03-01T01:40:25;-3.20;99.90
51914;DHT22;37940;53.002;6.930;2023-03-01T01:42:51;-3.20;99.90
51914;DHT22;37940;53.002;6.930;2023-03-01T01:45:35;-3.30;99.90
51914;DHT22;37940;53.002;6.930;2023-03-01T01:48:05;-3.30;99.90
51914;DHT22;37940;53.002;6.930;2023-03-01T01:50:32;-3.40;99.90
51914;DHT22;37940;53.002;6.930;2023-03-01T01:53:06;-3.40;99.90
51914;DHT22;37940;53.002;6.930;2023-03-01T01:55:37;-3.40;99.90
51914;DHT22;37940;53.002;6.930;2023-03-01T01:58:08;-3.40;99.90
51914;DHT22;37940;53.002;6.930;2023-03-01T02:00:34;-3.50;99.90
51914;DHT22;37940;53.002;6.930;2023-03-01T02:03:10;-2.60;99.90
51914;DHT22;37940;53.002;6.930;2023-03-01T02:05:57;-3.50;99.90
51914;DHT22;37940;53.002;6.930;2023-03-01T02:08:27;-3.50;99.90
51914;DHT22;37940;53.002;6.930;2023-03-01T02:10:56;-3.40;99.90
51914;DHT22;37940;53.002;6.930;2023-03-01T02:13:23;-3.50;99.90
51914;DHT22;37940;53.002;6.930;2023-03-01T02:15:49;-3.50;99.90
51914;DHT22;37940;53.002;6.930;2023-03-01T02:18:18;-3.60;99.90
51914;DHT22;37940;53.002;6.930;2023-03-01T02:23:15;-3.60;99.90
51914;DHT22;37940;53.002;6.930;2023-03-01T02:25:51;-3.50;99.90
51914;DHT22;37940;53.002;6.930;2023-03-01T02:28:29;-3.60;99.90
51914;DHT22;37940;53.002;6.930;2023-03-01T02:30:55;-3.60;99.90
51914;DHT22;37940;53.002;6.930;2023-03-01T02:33:39;-3.70;99.90
51914;DHT22;37940;53.002;6.930;2023-03-01T02:36:23;-3.50;99.90
51914;DHT22;37940;53.002;6.930;2023-03-01T02:38:52;-3.70;99.90
51914;DHT22;37940;53.002;6.930;2023-03-01T02:41:20;-3.70;99.90
51914;DHT22;37940;53.002;6.930;2023-03-01T02:43:46;-3.80;99.90
51914;DHT22;37940;53.002;6.930;2023-03-01T02:46:23;-3.40;99.90
51914;DHT22;37940;53.002;6.930;2023-03-01T02:48:52;-3.80;99.90
51914;DHT22;37940;53.002;6.930;2023-03-01T02:56:47;-3.80;99.90
51914;DHT22;37940;53.002;6.930;2023-03-01T02:59:16;-3.10;99.90
51914;DHT22;37940;53.002;6.930;2023-03-01T03:01:43;-3.90;99.90
51914;DHT22;37940;53.002;6.930;2023-03-01T03:04:11;-3.90;99.90
51914;DHT22;37940;53.002;6.930;2023-03-01T03:06:47;-3.90;99.90
51914;DHT22;37940;53.002;6.930;2023-03-01T03:09:14;-3.90;99.90
51914;DHT22;37940;53.002;6.930;2023-03-01T03:11:41;-3.90;99.90
51914;DHT22;37940;53.002;6.930;2023-03-01T03:14:12;-3.90;99.90
51914;DHT22;37940;53.002;6.930;2023-03-01T03:16:44;-3.90;99.90
51914;DHT22;37940;53.002;6.930;2023-03-01T03:19:10;-3.90;99.90
51914;DHT22;37940;53.002;6.930;2023-03-01T03:21:37;-3.90;99.90
51914;DHT22;37940;53.002;6.930;2023-03-01T03:24:03;-3.90;99.90
51914;DHT22;37940;53.002;6.930;2023-03-01T03:26:29;-3.90;99.90
51914;DHT22;37940;53.002;6.930;2023-03-01T03:28:55;-3.80;99.90
51914;DHT22;37940;53.002;6.930;2023-03-01T03:31:21;-3.80;99.90
51914;DHT22;37940;53.002;6.930;2023-03-01T03:33:47;-3.80;99.90
51914;DHT22;37940;53.002;6.930;2023-03-01T03:36:21;-3.60;99.90
51914;DHT22;37940;53.002;6.930;2023-03-01T03:38:47;-3.40;99.90
51914;DHT22;37940;53.002;6.930;2023-03-01T03:41:14;-3.90;99.90
51914;DHT22;37940;53.002;6.930;2023-03-01T03:43:42;-3.10;99.90
51914;DHT22;37940;53.002;6.930;2023-03-01T03:46:09;-3.90;99.90
51914;DHT22;37940;53.002;6.930;2023-03-01T03:48:43;-3.40;99.90
51914;DHT22;37940;53.002;6.930;2023-03-01T03:51:11;-3.90;99.90
51914;DHT22;37940;53.002;6.930;2023-03-01T03:53:37;-4.00;99.90
51914;DHT22;37940;53.002;6.930;2023-03-01T03:56:03;-2.90;99.90
51914;DHT22;37940;53.002;6.930;2023-03-01T03:58:29;-4.00;99.90
51914;DHT22;37940;53.002;6.930;2023-03-01T04:00:56;-4.10;99.90
51914;DHT22;37940;53.002;6.930;2023-03-01T04:03:24;-4.10;99.90
51914;DHT22;37940;53.002;6.930;2023-03-01T04:05:51;-4.10;99.90
51914;DHT22;37940;53.002;6.930;2023-03-01T04:08:18;-4.10;99.90
51914;DHT22;37940;53.002;6.930;2023-03-01T04:10:47;-4.20;99.90
51914;DHT22;37940;53.002;6.930;2023-03-01T04:13:16;-3.90;99.90
51914;DHT22;37940;53.002;6.930;2023-03-01T04:15:42;-4.20;99.90
51914;DHT22;37940;53.002;6.930;2023-03-01T04:18:13;-3.60;99.90
51914;DHT22;37940;53.002;6.930;2023-03-01T04:20:39;-4.30;99.90
51914;DHT22;37940;53.002;6.930;2023-03-01T04:23:12;-4.30;99.90
51914;DHT22;37940;53.002;6.930;2023-03-01T04:25:54;-4.30;99.90
51914;DHT22;37940;53.002;6.930;2023-03-01T04:28:32;-4.30;99.90
51914;DHT22;37940;53.002;6.930;2023-03-01T04:31:06;-4.30;99.90
51914;DHT22;37940;53.002;6.930;2023-03-01T04:33:44;-4.30;99.90
51914;DHT22;37940;53.002;6.930;2023-03-01T04:36:11;-4.30;99.90
51914;DHT22;37940;53.002;6.930;2023-03-01T04:38:38;-3.80;99.90
51914;DHT22;37940;53.002;6.930;2023-03-01T04:41:05;-4.40;99.90
51914;DHT22;37940;53.002;6.930;2023-03-01T04:43:32;-4.40;99.90
51914;DHT22;37940;53.002;6.930;2023-03-01T04:46:14;-3.10;99.90
51914;DHT22;37940;53.002;6.930;2023-03-01T04:48:41;-4.40;99.90
51914;DHT22;37940;53.002;6.930;2023-03-01T04:51:07;-4.40;99.90
51914;DHT22;37940;53.002;6.930;2023-03-01T04:53:34;-4.40;99.90
51914;DHT22;37940;53.002;6.930;2023-03-01T04:56:02;-4.10;99.90
51914;DHT22;37940;53.002;6.930;2023-03-01T04:58:28;-3.80;99.90
51914;DHT22;37940;53.002;6.930;2023-03-01T05:00:54;-4.40;99.90
51914;DHT22;37940;53.002;6.930;2023-03-01T05:03:20;-4.40;99.90
51914;DHT22;37940;53.002;6.930;2023-03-01T05:05:51;-4.40;99.90
51914;DHT22;37940;53.002;6.930;2023-03-01T05:08:17;-4.10;99.90
51914;DHT22;37940;53.002;6.930;2023-03-01T05:10:45;-4.40;99.90
51914;DHT22;37940;53.002;6.930;2023-03-01T05:13:12;-4.50;99.90
51914;DHT22;37940;53.002;6.930;2023-03-01T05:15:57;-3.70;99.90
51914;DHT22;37940;53.002;6.930;2023-03-01T05:18:24;-4.50;99.90
51914;DHT22;37940;53.002;6.930;2023-03-01T05:20:55;-4.50;99.90
51914;DHT22;37940;53.002;6.930;2023-03-01T05:23:24;-4.50;99.90
51914;DHT22;37940;53.002;6.930;2023-03-01T05:25:50;-4.50;99.90
51914;DHT22;37940;53.002;6.930;2023-03-01T05:28:18;-4.60;99.90
51914;DHT22;37940;53.002;6.930;2023-03-01T05:30:46;-4.60;99.90
51914;DHT22;37940;53.002;6.930;2023-03-01T05:33:12;-3.80;99.90
51914;DHT22;37940;53.002;6.930;2023-03-01T05:35:41;-4.60;99.90
51914;DHT22;37940;53.002;6.930;2023-03-01T05:38:08;-4.60;99.90
51914;DHT22;37940;53.002;6.930;2023-03-01T05:40:35;-4.60;99.90
51914;DHT22;37940;53.002;6.930;2023-03-01T05:43:00;-4.60;99.90
51914;DHT22;37940;53.002;6.930;2023-03-01T05:45:27;-3.30;99.90
51914;DHT22;37940;53.002;6.930;2023-03-01T05:47:53;-4.60;99.90
51914;DHT22;37940;53.002;6.930;2023-03-01T05:50:28;-3.40;99.90
51914;DHT22;37940;53.002;6.930;2023-03-01T05:53:00;-4.60;99.90
51914;DHT22;37940;53.002;6.930;2023-03-01T05:55:27;-4.70;99.90
51914;DHT22;37940;53.002;6.930;2023-03-01T05:57:53;-4.70;99.90
51914;DHT22;37940;53.002;6.930;2023-03-01T06:00:20;-4.70;99.90
51914;DHT22;37940;53.002;6.930;2023-03-01T06:02:48;-4.70;99.90
51914;DHT22;37940;53.002;6.930;2023-03-01T06:05:14;-4.00;99.90
51914;DHT22;37940;53.002;6.930;2023-03-01T06:07:41;-4.70;99.90
51914;DHT22;37940;53.002;6.930;2023-03-01T06:10:08;-4.70;99.90
51914;DHT22;37940;53.002;6.930;2023-03-01T06:12:36;-4.70;99.90
51914;DHT22;37940;53.002;6.930;2023-03-01T06:15:03;-4.70;99.90
51914;DHT22;37940;53.002;6.930;2023-03-01T06:17:32;-4.70;99.90
51914;DHT22;37940;53.002;6.930;2023-03-01T06:19:58;-4.40;99.90
51914;DHT22;37940;53.002;6.930;2023-03-01T06:22:24;-3.50;99.90
51914;DHT22;37940;53.002;6.930;2023-03-01T06:24:50;-4.70;99.90
51914;DHT22;37940;53.002;6.930;2023-03-01T06:27:15;-4.70;99.90
51914;DHT22;37940;53.002;6.930;2023-03-01T06:29:41;-4.70;99.90
51914;DHT22;37940;53.002;6.930;2023-03-01T06:32:07;-4.60;99.90
51914;DHT22;37940;53.002;6.930;2023-03-01T06:34:33;-4.60;99.90
51914;DHT22;37940;53.002;6.930;2023-03-01T06:36:59;-4.60;99.90
51914;DHT22;37940;53.002;6.930;2023-03-01T06:39:27;-4.50;99.90
51914;DHT22;37940;53.002;6.930;2023-03-01T06:41:52;-4.50;99.90
51914;DHT22;37940;53.002;6.930;2023-03-01T06:44:18;-4.40;99.90
51914;DHT22;37940;53.002;6.930;2023-03-01T06:46:47;-3.80;99.90
51914;DHT22;37940;53.002;6.930;2023-03-01T06:49:13;-4.30;99.90
51914;DHT22;37940;53.002;6.930;2023-03-01T06:51:38;-4.30;99.90
51914;DHT22;37940;53.002;6.930;2023-03-01T06:54:04;-4.20;99.90
51914;DHT22;37940;53.002;6.930;2023-03-01T06:56:31;-4.10;99.90
51914;DHT22;37940;53.002;6.930;2023-03-01T06:58:57;-4.10;99.90
51914;DHT22;37940;53.002;6.930;2023-03-01T07:01:23;-4.00;99.90
51914;DHT22;37940;53.002;6.930;2023-03-01T07:03:49;-3.90;99.90
51914;DHT22;37940;53.002;6.930;2023-03-01T07:06:14;-3.80;99.90
51914;DHT22;37940;53.002;6.930;2023-03-01T07:08:40;-2.60;99.90
51914;DHT22;37940;53.002;6.930;2023-03-01T07:11:06;-3.70;99.90
51914;DHT22;37940;53.002;6.930;2023-03-01T07:13:32;-3.60;99.90
51914;DHT22;37940;53.002;6.930;2023-03-01T07:15:58;-2.60;99.90
51914;DHT22;37940;53.002;6.930;2023-03-01T07:18:24;-3.40;99.90
51914;DHT22;37940;53.002;6.930;2023-03-01T07:20:50;-3.30;99.90
51914;DHT22;37940;53.002;6.930;2023-03-01T07:23:16;-2.10;99.90
51914;DHT22;37940;53.002;6.930;2023-03-01T07:25:41;-3.10;99.90
51914;DHT22;37940;53.002;6.930;2023-03-01T07:28:07;-2.80;99.90
51914;DHT22;37940;53.002;6.930;2023-03-01T07:30:33;-1.70;99.90
51914;DHT22;37940;53.002;6.930;2023-03-01T07:32:59;-2.60;99.90
51914;DHT22;37940;53.002;6.930;2023-03-01T07:35:26;-2.50;99.90
51914;DHT22;37940;53.002;6.930;2023-03-01T07:37:52;-2.10;99.90
51914;DHT22;37940;53.002;6.930;2023-03-01T07:40:19;-0.80;99.90
51914;DHT22;37940;53.002;6.930;2023-03-01T07:42:45;-2.10;99.90
51914;DHT22;37940;53.002;6.930;2023-03-01T07:45:11;-1.90;99.90
51914;DHT22;37940;53.002;6.930;2023-03-01T07:47:39;-1.80;99.90
51914;DHT22;37940;53.002;6.930;2023-03-01T07:50:05;-1.60;99.90
51914;DHT22;37940;53.002;6.930;2023-03-01T07:52:31;-1.50;99.90
51914;DHT22;37940;53.002;6.930;2023-03-01T07:54:57;-1.40;99.90
51914;DHT22;37940;53.002;6.930;2023-03-01T07:57:23;-1.30;99.90
51914;DHT22;37940;53.002;6.930;2023-03-01T07:59:49;-1.20;99.90
51914;DHT22;37940;53.002;6.930;2023-03-01T08:02:14;-1.10;99.90
51914;DHT22;37940;53.002;6.930;2023-03-01T08:04:41;-1.00;99.90
51914;DHT22;37940;53.002;6.930;2023-03-01T08:07:07;-1.00;99.90
51914;DHT22;37940;53.002;6.930;2023-03-01T08:09:36;-0.90;99.90
51914;DHT22;37940;53.002;6.930;2023-03-01T08:12:03;-0.90;99.90
51914;DHT22;37940;53.002;6.930;2023-03-01T08:14:31;-0.80;99.90
51914;DHT22;37940;53.002;6.930;2023-03-01T08:16:57;-0.40;99.90
51914;DHT22;37940;53.002;6.930;2023-03-01T08:19:23;-0.60;99.90
51914;DHT22;37940;53.002;6.930;2023-03-01T08:21:49;-0.50;99.90
51914;DHT22;37940;53.002;6.930;2023-03-01T08:24:14;-0.50;99.90
51914;DHT22;37940;53.002;6.930;2023-03-01T08:26:40;-0.50;99.90
51914;DHT22;37940;53.002;6.930;2023-03-01T08:29:06;-0.10;99.90
51914;DHT22;37940;53.002;6.930;2023-03-01T08:31:39;-0.30;99.90
51914;DHT22;37940;53.002;6.930;2023-03-01T08:34:08;0.20;99.90
51914;DHT22;37940;53.002;6.930;2023-03-01T08:36:40;-0.20;99.90
51914;DHT22;37940;53.002;6.930;2023-03-01T08:39:07;-0.20;99.90
51914;DHT22;37940;53.002;6.930;2023-03-01T08:41:33;0.00;99.90
51914;DHT22;37940;53.002;6.930;2023-03-01T08:43:59;-0.20;99.90
51914;DHT22;37940;53.002;6.930;2023-03-01T08:46:30;-0.20;99.90
51914;DHT22;37940;53.002;6.930;2023-03-01T08:48:57;-0.20;99.90
51914;DHT22;37940;53.002;6.930;2023-03-01T08:51:23;-0.20;99.90
51914;DHT22;37940;53.002;6.930;2023-03-01T08:53:49;-0.20;99.90
51914;DHT22;37940;53.002;6.930;2023-03-01T08:56:16;-0.20;99.90
51914;DHT22;37940;53.002;6.930;2023-03-01T08:58:48;-0.30;99.90
51914;DHT22;37940;53.002;6.930;2023-03-01T09:01:16;-0.40;99.90
51914;DHT22;37940;53.002;6.930;2023-03-01T09:03:43;-0.40;99.90
51914;DHT22;37940;53.002;6.930;2023-03-01T09:06:10;-0.10;99.90
51914;DHT22;37940;53.002;6.930;2023-03-01T09:08:41;-0.40;99.90
51914;DHT22;37940;53.002;6.930;2023-03-01T09:11:11;-0.40;99.90
51914;DHT22;37940;53.002;6.930;2023-03-01T09:13:37;-0.40;99.90
51914;DHT22;37940;53.002;6.930;2023-03-01T09:16:04;-0.50;99.90
51914;DHT22;37940;53.002;6.930;2023-03-01T09:18:30;-0.50;99.90
51914;DHT22;37940;53.002;6.930;2023-03-01T09:21:10;-0.40;99.90
51914;DHT22;37940;53.002;6.930;2023-03-01T09:23:38;-0.40;99.90
51914;DHT22;37940;53.002;6.930;2023-03-01T09:26:12;-0.40;99.90
51914;DHT22;37940;53.002;6.930;2023-03-01T09:28:39;-0.30;99.90
51914;DHT22;37940;53.002;6.930;2023-03-01T09:31:06;-0.20;99.90
51914;DHT22;37940;53.002;6.930;2023-03-01T09:33:33;-0.10;99.90
51914;DHT22;37940;53.002;6.930;2023-03-01T09:36:00;0.20;99.90
51914;DHT22;37940;53.002;6.930;2023-03-01T09:38:26;0.10;99.90
51914;DHT22;37940;53.002;6.930;2023-03-01T09:40:53;0.20;99.90
51914;DHT22;37940;53.002;6.930;2023-03-01T09:46:21;0.50;99.90
51914;DHT22;37940;53.002;6.930;2023-03-01T09:49:03;0.60;99.90
51914;DHT22;37940;53.002;6.930;2023-03-01T09:51:33;1.10;99.90
51914;DHT22;37940;53.002;6.930;2023-03-01T09:54:02;0.80;99.90
51914;DHT22;37940;53.002;6.930;2023-03-01T09:56:45;0.90;99.90
51914;DHT22;37940;53.002;6.930;2023-03-01T09:59:36;1.10;99.90
51914;DHT22;37940;53.002;6.930;2023-03-01T10:04:48;1.20;99.90
51914;DHT22;37940;53.002;6.930;2023-03-01T10:09:46;1.40;99.90
51914;DHT22;37940;53.002;6.930;2023-03-01T10:12:16;1.60;99.90
51914;DHT22;37940;53.002;6.930;2023-03-01T10:22:45;2.10;99.90
51914;DHT22;37940;53.002;6.930;2023-03-01T10:28:17;2.50;99.90
51914;DHT22;37940;53.002;6.930;2023-03-01T10:30:44;2.70;99.90
51914;DHT22;37940;53.002;6.930;2023-03-01T10:33:43;2.80;99.90
51914;DHT22;37940;53.002;6.930;2023-03-01T10:36:09;3.00;99.90
51914;DHT22;37940;53.002;6.930;2023-03-01T10:41:14;3.20;99.90
51914;DHT22;37940;53.002;6.930;2023-03-01T10:43:44;3.30;99.90
51914;DHT22;37940;53.002;6.930;2023-03-01T10:46:37;3.40;99.90
51914;DHT22;37940;53.002;6.930;2023-03-01T10:49:19;3.50;99.90
51914;DHT22;37940;53.002;6.930;2023-03-01T10:51:49;3.70;99.90
51914;DHT22;37940;53.002;6.930;2023-03-01T10:54:29;3.90;99.90
51914;DHT22;37940;53.002;6.930;2023-03-01T10:57:00;4.00;99.90
51914;DHT22;37940;53.002;6.930;2023-03-01T10:59:30;4.10;99.90
51914;DHT22;37940;53.002;6.930;2023-03-01T11:05:00;4.40;99.90
51914;DHT22;37940;53.002;6.930;2023-03-01T11:07:26;4.60;99.90
51914;DHT22;37940;53.002;6.930;2023-03-01T11:09:52;4.80;99.90
51914;DHT22;37940;53.002;6.930;2023-03-01T11:12:19;4.90;99.90
51914;DHT22;37940;53.002;6.930;2023-03-01T11:14:48;5.00;99.90
51914;DHT22;37940;53.002;6.930;2023-03-01T11:17:28;5.10;99.90
51914;DHT22;37940;53.002;6.930;2023-03-01T11:22:50;5.20;99.90
51914;DHT22;37940;53.002;6.930;2023-03-01T11:25:20;5.20;99.90
51914;DHT22;37940;53.002;6.930;2023-03-01T11:27:48;5.20;99.90
51914;DHT22;37940;53.002;6.930;2023-03-01T11:30:31;5.30;99.90
51914;DHT22;37940;53.002;6.930;2023-03-01T11:35:30;5.30;99.90
51914;DHT22;37940;53.002;6.930;2023-03-01T11:40:28;5.40;99.90
51914;DHT22;37940;53.002;6.930;2023-03-01T11:43:05;5.40;99.90
51914;DHT22;37940;53.002;6.930;2023-03-01T11:48:29;5.50;99.90
51914;DHT22;37940;53.002;6.930;2023-03-01T11:51:02;5.50;99.90
51914;DHT22;37940;53.002;6.930;2023-03-01T11:56:40;5.60;99.90
51914;DHT22;37940;53.002;6.930;2023-03-01T12:02:33;5.70;99.90
51914;DHT22;37940;53.002;6.930;2023-03-01T12:05:09;5.70;99.90
51914;DHT22;37940;53.002;6.930;2023-03-01T12:13:27;5.90;99.90
51914;DHT22;37940;53.002;6.930;2023-03-01T12:19:27;6.00;99.90
51914;DHT22;37940;53.002;6.930;2023-03-01T12:24:58;6.20;99.90
51914;DHT22;37940;53.002;6.930;2023-03-01T12:27:39;6.20;99.90
51914;DHT22;37940;53.002;6.930;2023-03-01T12:39:02;6.60;99.90
51914;DHT22;37940;53.002;6.930;2023-03-01T12:47:19;6.70;99.90
51914;DHT22;37940;53.002;6.930;2023-03-01T12:49:49;6.80;99.90
51914;DHT22;37940;53.002;6.930;2023-03-01T12:55:34;6.80;99.90
51914;DHT22;37940;53.002;6.930;2023-03-01T13:01:16;6.90;99.90
51914;DHT22;37940;53.002;6.930;2023-03-01T13:03:57;7.00;99.90
51914;DHT22;37940;53.002;6.930;2023-03-01T13:11:54;7.10;99.90
51914;DHT22;37940;53.002;6.930;2023-03-01T13:16:46;7.10;99.90
51914;DHT22;37940;53.002;6.930;2023-03-01T13:19:24;7.10;99.90
51914;DHT22;37940;53.002;6.930;2023-03-01T13:21:52;7.20;99.90
51914;DHT22;37940;53.002;6.930;2023-03-01T13:24:41;7.10;99.90
51914;DHT22;37940;53.002;6.930;2023-03-01T13:29:54;7.10;99.90
51914;DHT22;37940;53.002;6.930;2023-03-01T13:34:49;7.10;99.90
51914;DHT22;37940;53.002;6.930;2023-03-01T13:37:36;7.10;99.90
51914;DHT22;37940;53.002;6.930;2023-03-01T13:42:53;7.20;99.90
51914;DHT22;37940;53.002;6.930;2023-03-01T13:45:45;7.30;99.90
51914;DHT22;37940;53.002;6.930;2023-03-01T13:48:30;7.30;99.90
51914;DHT22;37940;53.002;6.930;2023-03-01T13:51:02;7.30;99.90
51914;DHT22;37940;53.002;6.930;2023-03-01T13:53:35;7.30;99.90
51914;DHT22;37940;53.002;6.930;2023-03-01T13:56:17;7.30;99.90
51914;DHT22;37940;53.002;6.930;2023-03-01T13:58:56;7.20;99.90
51914;DHT22;37940;53.002;6.930;2023-03-01T14:01:29;7.20;99.90
51914;DHT22;37940;53.002;6.930;2023-03-01T14:03:56;7.20;99.90
51914;DHT22;37940;53.002;6.930;2023-03-01T14:06:29;7.10;99.90
51914;DHT22;37940;53.002;6.930;2023-03-01T14:17:09;7.10;99.90
51914;DHT22;37940;53.002;6.930;2023-03-01T14:19:38;7.10;99.90
51914;DHT22;37940;53.002;6.930;2023-03-01T14:22:27;7.10;99.90
51914;DHT22;37940;53.002;6.930;2023-03-01T14:24:55;7.10;99.90
51914;DHT22;37940;53.002;6.930;2023-03-01T14:27:21;7.10;99.90
51914;DHT22;37940;53.002;6.930;2023-03-01T14:30:00;7.10;99.90
51914;DHT22;37940;53.002;6.930;2023-03-01T14:32:29;7.20;99.90
51914;DHT22;37940;53.002;6.930;2023-03-01T14:34:56;7.20;99.90
51914;DHT22;37940;53.002;6.930;2023-03-01T14:37:24;7.20;99.90
51914;DHT22;37940;53.002;6.930;2023-03-01T14:39:51;7.20;99.90
51914;DHT22;37940;53.002;6.930;2023-03-01T14:42:18;7.20;99.90
51914;DHT22;37940;53.002;6.930;2023-03-01T14:44:47;7.20;99.90
51914;DHT22;37940;53.002;6.930;2023-03-01T14:47:29;7.20;99.90
51914;DHT22;37940;53.002;6.930;2023-03-01T14:50:18;7.20;99.90
51914;DHT22;37940;53.002;6.930;2023-03-01T14:52:47;7.20;99.90
51914;DHT22;37940;53.002;6.930;2023-03-01T14:55:21;7.20;99.90
51914;DHT22;37940;53.002;6.930;2023-03-01T14:57:49;7.10;99.90
51914;DHT22;37940;53.002;6.930;2023-03-01T15:00:21;7.10;99.90
51914;DHT22;37940;53.002;6.930;2023-03-01T15:02:49;7.20;99.90
51914;DHT22;37940;53.002;6.930;2023-03-01T15:05:39;7.20;99.90
51914;DHT22;37940;53.002;6.930;2023-03-01T15:08:04;7.20;99.90
51914;DHT22;37940;53.002;6.930;2023-03-01T15:10:35;7.20;99.90
51914;DHT22;37940;53.002;6.930;2023-03-01T15:15:38;7.20;99.90
51914;DHT22;37940;53.002;6.930;2023-03-01T15:18:20;7.20;99.90
51914;DHT22;37940;53.002;6.930;2023-03-01T15:20:48;7.20;99.90
51914;DHT22;37940;53.002;6.930;2023-03-01T15:23:24;7.10;99.90
51914;DHT22;37940;53.002;6.930;2023-03-01T15:25:52;7.10;99.90
51914;DHT22;37940;53.002;6.930;2023-03-01T15:28:39;7.20;99.90
51914;DHT22;37940;53.002;6.930;2023-03-01T15:31:19;7.10;99.90
51914;DHT22;37940;53.002;6.930;2023-03-01T15:33:46;7.10;99.90
51914;DHT22;37940;53.002;6.930;2023-03-01T15:36:43;7.10;99.90
51914;DHT22;37940;53.002;6.930;2023-03-01T15:39:40;7.10;99.90
51914;DHT22;37940;53.002;6.930;2023-03-01T15:47:41;7.00;99.90
51914;DHT22;37940;53.002;6.930;2023-03-01T15:50:25;6.90;99.90
51914;DHT22;37940;53.002;6.930;2023-03-01T15:52:53;6.90;99.90
51914;DHT22;37940;53.002;6.930;2023-03-01T15:55:27;6.90;99.90
51914;DHT22;37940;53.002;6.930;2023-03-01T15:58:10;6.90;99.90
51914;DHT22;37940;53.002;6.930;2023-03-01T16:00:36;6.80;99.90
51914;DHT22;37940;53.002;6.930;2023-03-01T16:03:01;6.80;99.90
51914;DHT22;37940;53.002;6.930;2023-03-01T16:05:31;6.70;99.90
51914;DHT22;37940;53.002;6.930;2023-03-01T16:07:57;6.70;99.90
51914;DHT22;37940;53.002;6.930;2023-03-01T16:10:23;6.70;99.90
51914;DHT22;37940;53.002;6.930;2023-03-01T16:12:50;6.60;99.90
51914;DHT22;37940;53.002;6.930;2023-03-01T16:15:21;6.50;99.90
51914;DHT22;37940;53.002;6.930;2023-03-01T16:17:48;6.40;99.90
51914;DHT22;37940;53.002;6.930;2023-03-01T16:20:14;6.40;99.90
51914;DHT22;37940;53.002;6.930;2023-03-01T16:22:45;6.30;99.90
51914;DHT22;37940;53.002;6.930;2023-03-01T16:25:13;6.30;99.90
51914;DHT22;37940;53.002;6.930;2023-03-01T16:27:42;6.20;99.90
51914;DHT22;37940;53.002;6.930;2023-03-01T16:30:08;6.10;99.90
51914;DHT22;37940;53.002;6.930;2023-03-01T16:32:42;6.10;99.90
51914;DHT22;37940;53.002;6.930;2023-03-01T16:35:10;6.00;99.90
51914;DHT22;37940;53.002;6.930;2023-03-01T16:37:37;5.90;99.90
51914;DHT22;37940;53.002;6.930;2023-03-01T16:40:04;5.90;99.90
51914;DHT22;37940;53.002;6.930;2023-03-01T16:42:36;5.80;99.90
51914;DHT22;37940;53.002;6.930;2023-03-01T16:45:03;5.70;99.90
51914;DHT22;37940;53.002;6.930;2023-03-01T16:47:29;5.70;99.90
51914;DHT22;37940;53.002;6.930;2023-03-01T16:49:55;5.60;99.90
51914;DHT22;37940;53.002;6.930;2023-03-01T16:52:21;5.50;99.90
51914;DHT22;37940;53.002;6.930;2023-03-01T16:54:48;5.40;99.90
51914;DHT22;37940;53.002;6.930;2023-03-01T16:57:13;5.30;99.90
51914;DHT22;37940;53.002;6.930;2023-03-01T16:59:40;5.20;99.90
51914;DHT22;37940;53.002;6.930;2023-03-01T17:02:08;5.10;99.90
51914;DHT22;37940;53.002;6.930;2023-03-01T17:04:36;5.00;99.90
51914;DHT22;37940;53.002;6.930;2023-03-01T17:07:02;4.90;99.90
51914;DHT22;37940;53.002;6.930;2023-03-01T17:09:28;4.80;99.90
51914;DHT22;37940;53.002;6.930;2023-03-01T17:11:54;4.70;99.90
51914;DHT22;37940;53.002;6.930;2023-03-01T17:14:20;4.60;99.90
51914;DHT22;37940;53.002;6.930;2023-03-01T17:16:46;4.60;99.90
51914;DHT22;37940;53.002;6.930;2023-03-01T17:19:12;4.60;99.90
51914;DHT22;37940;53.002;6.930;2023-03-01T17:21:43;4.60;99.90
51914;DHT22;37940;53.002;6.930;2023-03-01T17:24:10;4.60;99.90
51914;DHT22;37940;53.002;6.930;2023-03-01T17:26:36;4.50;99.90
51914;DHT22;37940;53.002;6.930;2023-03-01T17:29:02;4.60;99.90
51914;DHT22;37940;53.002;6.930;2023-03-01T17:31:33;4.50;99.90
51914;DHT22;37940;53.002;6.930;2023-03-01T17:33:59;4.50;99.90
51914;DHT22;37940;53.002;6.930;2023-03-01T17:36:24;4.50;99.90
51914;DHT22;37940;53.002;6.930;2023-03-01T17:38:50;4.40;99.90
51914;DHT22;37940;53.002;6.930;2023-03-01T17:41:17;4.30;99.90
51914;DHT22;37940;53.002;6.930;2023-03-01T17:43:47;4.30;99.90
51914;DHT22;37940;53.002;6.930;2023-03-01T17:46:13;4.20;99.90
51914;DHT22;37940;53.002;6.930;2023-03-01T17:48:39;4.20;99.90